TRAVEL WEATHER INFO - USA

NOAA Site Locator - Search for Station Information

CITY Forecast Link METAR Identifier Last Updated Temperature Dew Point Humidity Pressure Wind Direction Wind Speed Wind Gust Weather Rain/hr Google Maps
Albuqueque WEATHER KABQ 09/20/2018 16:52 71.6 51.8 50 30.01 N 3 3 Broken Clouds --- Albuquerque, NM Map
Anchorage WEATHER PAED 09/20/2018 16:56 57.2 51.8 82 30.11 --- 0 0 Broken Clouds --- Anchorage, AK Map
Atlanta WEATHER KATL 09/20/2018 16:52 91.4 62.6 39 30.07 SE 6 6 Few Clouds --- ATLANTA, GA Map
Birmingham WEATHER KBHM 09/20/2018 16:53 93.2 62.6 36 30.04 SE 5 5 Few Clouds --- Birmingham, AL Map
Boston WEATHER KBOS 09/20/2018 17:14 62.6 55.4 77 30.26 E 12 12 Broken Clouds --- BOSTON, MA Map
Cheyenne WEATHER KCYS 09/20/2018 16:53 73.4 21.2 14 29.94 WNW 17 33 Clear --- Cheyenne, WY Map
Chicago O'Hare WEATHER KORD 09/20/2018 16:51 89.6 71.6 56 29.83 S 5 5 Scattered Clouds --- CHICAGO, IL Map
Colorado Springs WEATHER KCOS 09/20/2018 16:54 78.8 44.6 30 29.94 SSE 9 23 Broken Clouds --- Colo. Springs, CO Map
Dallas WEATHER KADS 09/20/2018 16:47 89.6 68.0 49 29.91 SSE 12 18 Scattered Clouds --- Dallas, TX Map
Denver WEATHER KDEN 09/20/2018 16:53 80.6 28.4 15 29.88 W 12 12 Scattered Clouds --- DENVER, CO Map
Detroit WEATHER KDET 09/20/2018 16:53 71.6 66.2 83 30.01 ESE 8 8 Overcast --- Detroit, MI Map
Dover WEATHER KDOV 09/20/2018 16:56 73.4 62.6 69 30.19 ESE 9 9 Scattered Clouds --- DOVER, DE Map
Fort Lauderdale WEATHER KFXE 09/20/2018 16:53 89.6 75.2 63 30.00 E 11 11 Scattered Clouds --- Fort Lauderdale, FL Map
Honolulu WEATHER PHNL 09/20/2018 16:53 86.0 73.4 66 29.93 S 6 6 Few Clouds --- Honolulu, HI Map
JFK Airport WEATHER KJFK 09/20/2018 16:51 69.8 62.6 78 30.22 SSE 8 8 Broken Clouds --- JFK Airport, NYC Map
Key West WEATHER KEYW 09/20/2018 17:12 89.6 75.2 63 29.99 N 3 3 Broken Clouds --- Key West, FL Map
Los Angeles WEATHER KLAX 09/20/2018 16:53 73.4 62.6 69 29.85 WSW 13 13 Clear --- Los Angeles, CA Map
Louisville WEATHER KSDF 09/20/2018 16:56 93.2 66.2 41 30.00 S 8 8 Few Clouds --- Louisville, KY Map
Minneapolis WEATHER KMSP 09/20/2018 16:53 64.4 64.4 100 29.65 ESE 19 29 Overcast 0.61 Minneapolis, MN Map
Morgantown WEATHER KMGW 09/20/2018 16:53 84.2 64.4 52 30.12 SSE 3 3 Few Clouds --- Morgantown, WV Map
New Orleans WEATHER KNEW 09/20/2018 17:18 87.8 73.4 63 29.98 WSW 12 26 Clear --- New Orleans, LA Map
New York City WEATHER KNYC 09/20/2018 16:51 68.0 60.8 78 30.23 N 0 0 Broken Clouds --- New York, NY Map
Omaha WEATHER KOMA 09/20/2018 16:52 95.0 62.6 35 29.62 SSW 27 41 Scattered Clouds --- Omaha, NE Map
Philadelphia WEATHER KPHL 09/20/2018 16:54 71.6 62.6 73 30.21 ESE 11 11 Overcast --- Philadelphia, PA Map
Pittsburgh WEATHER KPIT 09/20/2018 16:51 84.2 66.2 55 30.09 S 6 6 Broken Clouds --- Pittsburgh, PA Map
Seattle WEATHER KSEA 09/20/2018 16:53 64.4 48.2 56 30.13 WSW 10 10 Broken Clouds --- Seattle, WA Map
San Francisco WEATHER KSFO 09/20/2018 16:56 78.8 57.2 48 29.84 N 4 4 Clear --- San Francisco, CA Map
Washington DC WEATHER KDCA 09/20/2018 16:52 80.6 69.8 70 30.15 SSE 12 12 Broken Clouds --- Washington, DC Map